createdAt,value
2019-04-28T00:02:27.558Z,3.83
2019-04-28T00:04:56.869Z,3.60
2019-04-28T00:07:26.143Z,3.20
2019-04-28T00:09:55.467Z,3.87
2019-04-28T00:12:25.231Z,3.90
2019-04-28T00:14:54.800Z,3.67
2019-04-28T00:17:24.346Z,13.80
2019-04-28T00:19:55.263Z,4.30
2019-04-28T00:22:51.500Z,3.73
2019-04-28T00:25:24.499Z,3.60
2019-04-28T00:27:53.899Z,3.40
2019-04-28T00:30:23.182Z,3.70
2019-04-28T00:32:52.457Z,3.60
2019-04-28T00:35:23.227Z,3.60
2019-04-28T00:37:52.640Z,3.83
2019-04-28T00:40:21.923Z,3.53
2019-04-28T00:42:51.620Z,4.00
2019-04-28T00:45:21.509Z,3.47
2019-04-28T00:47:51.081Z,3.57
2019-04-28T00:50:21.790Z,4.27
2019-04-28T00:52:51.827Z,3.57
2019-04-28T00:55:21.243Z,3.80
2019-04-28T00:57:50.979Z,3.67
2019-04-28T01:00:23.160Z,3.40
2019-04-28T01:02:53.221Z,3.23
2019-04-28T01:05:22.479Z,4.30
2019-04-28T01:07:58.519Z,3.60
2019-04-28T01:10:30.799Z,3.70
2019-04-28T01:13:01.966Z,3.97
2019-04-28T01:15:49.543Z,3.63
2019-04-28T01:18:25.205Z,3.83
2019-04-28T01:20:54.523Z,3.27
2019-04-28T01:23:24.095Z,3.50
2019-04-28T01:26:00.042Z,5.03
2019-04-28T01:28:29.747Z,3.23
2019-04-28T01:31:22.514Z,3.67
2019-04-28T01:34:11.160Z,3.47
2019-04-28T01:36:51.590Z,3.77
2019-04-28T01:39:21.018Z,3.90
2019-04-28T01:41:50.294Z,3.83
2019-04-28T01:44:19.941Z,3.23
2019-04-28T01:46:49.719Z,3.40
2019-04-28T01:49:19.708Z,4.80
2019-04-28T01:52:14.545Z,3.10
2019-04-28T01:54:43.814Z,3.07
2019-04-28T01:57:13.370Z,3.80
2019-04-28T01:59:42.672Z,3.43
2019-04-28T02:02:11.936Z,3.70
2019-04-28T02:04:41.474Z,3.43
2019-04-28T02:07:11.167Z,2.73
2019-04-28T02:09:40.785Z,3.37
2019-04-28T02:12:10.693Z,3.60
2019-04-28T02:14:40.485Z,3.40
2019-04-28T02:17:10.466Z,3.10
2019-04-28T02:19:40.996Z,3.40
2019-04-28T02:22:31.802Z,3.20
2019-04-28T02:25:01.270Z,3.40
2019-04-28T02:27:30.641Z,3.47
2019-04-28T02:30:00.338Z,3.57
2019-04-28T02:32:30.986Z,3.37
2019-04-28T02:35:01.643Z,4.20
2019-04-28T02:37:31.145Z,3.07
2019-04-28T02:40:03.437Z,3.70
2019-04-28T02:42:31.773Z,3.57
2019-04-28T02:45:01.807Z,3.63
2019-04-28T02:47:33.981Z,3.23
2019-04-28T02:50:21.376Z,3.70
2019-04-28T02:53:22.208Z,3.47
2019-04-28T02:55:51.608Z,3.33
2019-04-28T02:58:22.392Z,3.70
2019-04-28T03:01:04.927Z,3.40
2019-04-28T03:03:23.282Z,3.47
2019-04-28T03:05:52.728Z,3.30
2019-04-28T03:08:22.356Z,4.13
2019-04-28T03:10:51.698Z,3.53
2019-04-28T03:13:21.143Z,3.10
2019-04-28T03:15:51.513Z,2.97
2019-04-28T03:18:21.619Z,3.80
2019-04-28T03:20:51.679Z,3.80
2019-04-28T03:23:21.509Z,3.27
2019-04-28T03:26:10.978Z,3.60
2019-04-28T03:28:47.125Z,3.50
2019-04-28T03:32:01.195Z,3.50
2019-04-28T03:34:05.125Z,3.10
2019-04-28T03:36:34.696Z,4.33
2019-04-28T03:39:06.621Z,3.97
2019-04-28T03:41:36.575Z,3.27
2019-04-28T03:44:06.286Z,2.90
2019-04-28T03:46:41.381Z,3.10
2019-04-28T03:49:12.783Z,3.63
2019-04-28T03:51:42.424Z,3.50
2019-04-28T03:54:12.351Z,4.00
2019-04-28T03:56:41.817Z,3.40
2019-04-28T03:59:11.268Z,3.00
2019-04-28T04:01:55.446Z,3.50
2019-04-28T04:04:12.088Z,3.03
2019-04-28T04:06:41.421Z,3.80
2019-04-28T04:09:11.334Z,3.60
2019-04-28T04:11:50.870Z,3.67
2019-04-28T04:14:47.742Z,3.30
2019-04-28T04:17:25.126Z,3.17
2019-04-28T04:19:54.671Z,3.30
2019-04-28T04:22:24.084Z,3.70
2019-04-28T04:24:53.390Z,3.73
2019-04-28T04:27:23.036Z,3.37
2019-04-28T04:29:52.700Z,3.20
2019-04-28T04:32:26.653Z,3.20
2019-04-28T04:34:53.271Z,3.90
2019-04-28T04:37:22.551Z,3.63
2019-04-28T04:39:51.840Z,3.30
2019-04-28T04:42:21.467Z,3.60
2019-04-28T04:44:50.765Z,3.60
2019-04-28T04:47:21.103Z,3.30
2019-04-28T04:49:50.626Z,3.50
2019-04-28T04:52:20.385Z,3.40
2019-04-28T04:54:51.159Z,4.13
2019-04-28T04:57:20.791Z,3.57
2019-04-28T04:59:50.217Z,3.67
2019-04-28T05:02:33.914Z,3.67
2019-04-28T05:05:16.816Z,3.10
2019-04-28T05:07:46.368Z,3.33
2019-04-28T05:10:16.717Z,4.00
2019-04-28T05:12:45.985Z,3.47
2019-04-28T05:15:15.510Z,3.20
2019-04-28T05:17:45.059Z,4.07
2019-04-28T05:20:14.327Z,3.10
2019-04-28T05:22:50.561Z,3.43
2019-04-28T05:25:31.002Z,3.47
2019-04-28T05:28:01.131Z,3.47
2019-04-28T05:30:29.280Z,3.47
2019-04-28T05:33:00.359Z,3.60
2019-04-28T05:35:29.688Z,3.93
2019-04-28T05:37:59.760Z,3.50
2019-04-28T05:40:29.644Z,3.10
2019-04-28T05:43:00.891Z,3.13
2019-04-28T05:45:32.185Z,2.77
2019-04-28T05:48:01.891Z,3.90
2019-04-28T05:50:40.128Z,3.30
2019-04-28T05:53:24.491Z,3.50
2019-04-28T05:56:10.341Z,4.13
2019-04-28T05:59:02.210Z,4.27
2019-04-28T06:01:36.055Z,3.73
2019-04-28T06:04:05.416Z,4.17
2019-04-28T06:06:38.011Z,4.03
2019-04-28T06:09:24.875Z,4.67
2019-04-28T06:11:54.654Z,4.13
2019-04-28T06:14:24.092Z,4.37
2019-04-28T06:16:54.023Z,3.80
2019-04-28T06:19:23.944Z,3.47
2019-04-28T06:21:53.521Z,5.23
2019-04-28T06:24:22.871Z,4.00
2019-04-28T06:26:52.183Z,4.27
2019-04-28T06:29:21.510Z,4.57
2019-04-28T06:31:50.775Z,3.83
2019-04-28T06:34:20.099Z,3.57
2019-04-28T06:36:49.724Z,4.13
2019-04-28T06:39:19.327Z,3.60
2019-04-28T06:41:48.590Z,3.87
2019-04-28T06:44:17.905Z,3.57
2019-04-28T06:46:47.269Z,3.57
2019-04-28T06:49:16.676Z,3.80
2019-04-28T06:51:46.249Z,4.37
2019-04-28T06:54:15.524Z,4.17
2019-04-28T06:56:44.792Z,4.20
2019-04-28T06:59:14.080Z,4.20
2019-04-28T07:01:43.671Z,3.63
2019-04-28T07:04:13.198Z,9.27
2019-04-28T07:06:42.524Z,3.57
2019-04-28T07:09:13.811Z,3.90
2019-04-28T07:11:43.418Z,2.80
2019-04-28T07:14:12.963Z,3.53
2019-04-28T07:16:42.625Z,2.97
2019-04-28T07:19:12.229Z,3.13
2019-04-28T07:22:06.452Z,3.73
2019-04-28T07:24:36.044Z,3.27
2019-04-28T07:27:06.762Z,2.67
2019-04-28T07:29:36.385Z,3.10
2019-04-28T07:32:05.656Z,3.00
2019-04-28T07:34:35.212Z,2.70
2019-04-28T07:37:04.792Z,2.80
2019-04-28T07:39:34.090Z,1.83
2019-04-28T07:42:03.703Z,2.70
2019-04-28T07:44:33.427Z,2.30
2019-04-28T07:47:02.967Z,2.20
2019-04-28T07:49:32.236Z,2.47
2019-04-28T07:52:10.777Z,2.17
2019-04-28T07:54:40.231Z,1.87
2019-04-28T07:57:09.584Z,2.30
2019-04-28T07:59:39.115Z,1.70
2019-04-28T08:02:08.771Z,2.10
2019-04-28T08:04:38.097Z,2.43
2019-04-28T08:07:08.700Z,2.47
2019-04-28T08:09:38.272Z,2.00
2019-04-28T08:12:07.745Z,2.40
2019-04-28T08:14:37.124Z,1.90
2019-04-28T08:17:06.679Z,2.50
2019-04-28T08:19:36.218Z,2.33
2019-04-28T08:22:05.485Z,3.13
2019-04-28T08:24:35.347Z,2.70
2019-04-28T08:27:04.816Z,2.83
2019-04-28T08:29:34.335Z,2.83
2019-04-28T08:32:28.391Z,2.77
2019-04-28T08:34:57.936Z,3.40
2019-04-28T08:37:27.205Z,2.47
2019-04-28T08:39:56.942Z,2.30
2019-04-28T08:42:26.224Z,2.73
2019-04-28T08:44:55.517Z,2.30
2019-04-28T08:47:24.880Z,2.40
2019-04-28T08:49:54.498Z,2.93
2019-04-28T08:52:24.196Z,2.90
2019-04-28T08:54:53.807Z,3.03
2019-04-28T08:57:23.409Z,2.30
2019-04-28T08:59:52.962Z,2.30
2019-04-28T09:02:22.231Z,2.20
2019-04-28T09:04:51.864Z,2.00
2019-04-28T09:07:21.761Z,2.07
2019-04-28T09:09:51.103Z,2.47
2019-04-28T09:12:23.040Z,2.43
2019-04-28T09:14:55.415Z,3.13
2019-04-28T09:17:27.841Z,2.73
2019-04-28T09:19:57.104Z,2.50
2019-04-28T09:22:26.756Z,2.17
2019-04-28T09:24:56.091Z,2.40
2019-04-28T09:27:27.411Z,2.70
2019-04-28T09:29:56.748Z,2.50
2019-04-28T09:32:26.351Z,2.93
2019-04-28T09:34:55.641Z,2.43
2019-04-28T09:37:25.183Z,2.87
2019-04-28T09:39:59.672Z,2.30
2019-04-28T09:42:46.419Z,2.40
2019-04-28T09:45:19.267Z,4.83
2019-04-28T09:47:48.884Z,2.20
2019-04-28T09:50:18.437Z,2.00
2019-04-28T09:52:48.836Z,1.70
2019-04-28T09:55:18.641Z,1.73
2019-04-28T09:57:48.021Z,1.67
2019-04-28T10:00:18.948Z,1.73
2019-04-28T10:02:48.317Z,1.40
2019-04-28T10:05:17.668Z,1.37
2019-04-28T10:07:46.956Z,1.77
2019-04-28T10:10:16.750Z,1.93
2019-04-28T10:12:46.672Z,1.73
2019-04-28T10:15:16.232Z,1.50
2019-04-28T10:17:45.584Z,1.37
2019-04-28T10:20:15.423Z,1.37
2019-04-28T10:22:44.776Z,1.93
2019-04-28T10:25:14.378Z,1.50
2019-04-28T10:27:43.655Z,1.20
2019-04-28T10:30:13.944Z,1.13
2019-04-28T10:32:43.276Z,1.50
2019-04-28T10:35:13.029Z,1.70
2019-04-28T10:37:42.311Z,1.70
2019-04-28T10:40:20.295Z,1.40
2019-04-28T10:42:49.717Z,1.30
2019-04-28T10:45:21.905Z,1.40
2019-04-28T10:47:51.447Z,1.20
2019-04-28T10:50:20.788Z,1.73
2019-04-28T10:52:50.340Z,1.40
2019-04-28T10:55:19.612Z,1.30
2019-04-28T10:57:49.293Z,1.20
2019-04-28T11:00:20.218Z,1.00
2019-04-28T11:02:49.594Z,0.70
2019-04-28T11:05:25.131Z,0.90
2019-04-28T11:07:55.003Z,0.90
2019-04-28T11:10:24.520Z,0.83
2019-04-28T11:12:54.044Z,0.70
2019-04-28T11:15:28.725Z,1.00
2019-04-28T11:17:58.300Z,0.90
2019-04-28T11:20:27.615Z,0.90
2019-04-28T11:22:57.152Z,0.90
2019-04-28T11:25:26.429Z,0.93
2019-04-28T11:27:55.708Z,1.00
2019-04-28T11:30:25.771Z,0.80
2019-04-28T11:33:29.203Z,0.80
2019-04-28T11:35:58.503Z,1.20
2019-04-28T11:38:28.084Z,1.70
2019-04-28T11:40:57.364Z,0.97
2019-04-28T11:43:26.922Z,1.17
2019-04-28T11:45:56.371Z,1.60
2019-04-28T11:48:25.975Z,1.53
2019-04-28T11:50:55.587Z,1.77
2019-04-28T11:53:24.864Z,1.57
2019-04-28T11:55:54.475Z,1.07
2019-04-28T11:58:23.808Z,1.20
2019-04-28T12:00:53.244Z,19.53
2019-04-28T12:03:22.684Z,1.90
2019-04-28T12:05:52.247Z,0.93
2019-04-28T12:08:21.527Z,1.00
2019-04-28T12:11:08.452Z,1.00
2019-04-28T12:13:55.179Z,0.80
2019-04-28T12:16:49.314Z,1.47
2019-04-28T12:19:29.911Z,1.57
2019-04-28T12:21:59.532Z,0.90
2019-04-28T12:24:29.084Z,1.23
2019-04-28T12:26:58.752Z,0.80
2019-04-28T12:29:28.268Z,1.27
2019-04-28T12:31:57.683Z,1.10
2019-04-28T12:34:27.221Z,1.30
2019-04-28T12:36:56.551Z,2.80
2019-04-28T12:39:26.210Z,2.37
2019-04-28T12:41:55.803Z,2.00
2019-04-28T12:44:25.218Z,2.50
2019-04-28T12:46:54.566Z,2.60
2019-04-28T12:49:39.419Z,1.47
2019-04-28T12:52:09.627Z,1.47
2019-04-28T12:54:40.201Z,1.43
2019-04-28T12:57:09.713Z,1.43
2019-04-28T12:59:53.007Z,1.30
2019-04-28T13:02:38.864Z,1.30
2019-04-28T13:05:12.183Z,1.47
2019-04-28T13:07:41.444Z,1.20
2019-04-28T13:10:11.561Z,1.30
2019-04-28T13:12:41.190Z,1.20
2019-04-28T13:15:10.828Z,1.30
2019-04-28T13:17:40.083Z,1.70
2019-04-28T13:20:10.044Z,1.70
2019-04-28T13:22:39.594Z,1.60
2019-04-28T13:25:08.946Z,1.10
2019-04-28T13:27:38.360Z,1.00
2019-04-28T13:30:08.054Z,1.87
2019-04-28T13:32:37.444Z,0.90
2019-04-28T13:35:07.886Z,1.10
2019-04-28T13:37:37.439Z,3.27
2019-04-28T13:40:15.170Z,3.10
2019-04-28T13:42:44.511Z,2.60
2019-04-28T13:45:17.905Z,2.30
2019-04-28T13:47:47.344Z,3.00
2019-04-28T13:50:25.045Z,2.17
2019-04-28T13:52:54.393Z,1.83
2019-04-28T13:55:41.469Z,2.53
2019-04-28T13:58:10.802Z,2.03
2019-04-28T14:00:57.347Z,1.60
2019-04-28T14:03:41.898Z,2.30
2019-04-28T14:06:13.628Z,2.00
2019-04-28T14:08:42.998Z,3.30
2019-04-28T14:11:12.345Z,3.37
2019-04-28T14:13:41.696Z,1.40
2019-04-28T14:16:11.074Z,1.70
2019-04-28T14:18:41.001Z,1.70
2019-04-28T14:21:10.263Z,1.60
2019-04-28T14:23:39.506Z,1.30
2019-04-28T14:26:08.796Z,1.27
2019-04-28T14:28:38.443Z,1.27
2019-04-28T14:31:08.025Z,1.07
2019-04-28T14:33:37.547Z,1.23
2019-04-28T14:36:06.918Z,1.73
2019-04-28T14:38:36.272Z,1.67
2019-04-28T14:41:05.581Z,1.73
2019-04-28T14:43:35.291Z,2.70
2019-04-28T14:46:04.657Z,2.67
2019-04-28T14:48:34.346Z,2.07
2019-04-28T14:51:03.706Z,1.50
2019-04-28T14:53:33.319Z,1.23
2019-04-28T14:56:02.943Z,1.50
2019-04-28T14:58:32.624Z,1.70
2019-04-28T15:01:09.114Z,1.40
2019-04-28T15:03:40.839Z,2.23
2019-04-28T15:06:19.531Z,1.37
2019-04-28T15:09:14.274Z,1.50
2019-04-28T15:11:47.066Z,1.47
2019-04-28T15:14:16.427Z,1.87
2019-04-28T15:16:45.882Z,2.20
2019-04-28T15:19:15.278Z,1.70
2019-04-28T15:21:44.551Z,1.50
2019-04-28T15:24:13.935Z,1.43
2019-04-28T15:26:43.331Z,1.60
2019-04-28T15:29:12.859Z,2.40
2019-04-28T15:31:42.419Z,2.27
2019-04-28T15:34:12.315Z,2.50
2019-04-28T15:36:41.874Z,2.30
2019-04-28T15:39:13.023Z,1.60
2019-04-28T15:41:42.355Z,1.60
2019-04-28T15:44:11.704Z,1.40
2019-04-28T15:46:41.260Z,1.57
2019-04-28T15:49:11.119Z,2.00
2019-04-28T15:51:40.687Z,1.10
2019-04-28T15:54:09.935Z,1.40
2019-04-28T15:56:45.419Z,0.93
2019-04-28T15:59:15.001Z,0.80
2019-04-28T16:01:44.716Z,0.90
2019-04-28T16:04:14.028Z,1.00
2019-04-28T16:06:43.385Z,0.93
2019-04-28T16:09:14.449Z,0.83
2019-04-28T16:11:44.058Z,0.97
2019-04-28T16:14:13.362Z,0.83
2019-04-28T16:16:42.874Z,1.83
2019-04-28T16:19:12.133Z,2.30
2019-04-28T16:21:41.394Z,1.70
2019-04-28T16:24:10.950Z,1.90
2019-04-28T16:26:40.542Z,1.80
2019-04-28T16:29:09.802Z,1.77
2019-04-28T16:31:39.399Z,1.60
2019-04-28T16:34:08.695Z,1.40
2019-04-28T16:36:38.071Z,1.20
2019-04-28T16:39:07.867Z,1.30
2019-04-28T16:41:37.152Z,0.63
2019-04-28T16:44:10.496Z,0.70
2019-04-28T16:46:40.100Z,0.87
2019-04-28T16:49:09.411Z,0.80
2019-04-28T16:51:39.022Z,0.90
2019-04-28T16:54:08.627Z,0.90
2019-04-28T16:56:59.285Z,1.17
2019-04-28T17:00:02.231Z,1.10
2019-04-28T17:02:44.979Z,1.00
2019-04-28T17:05:15.147Z,1.40
2019-04-28T17:07:52.431Z,1.20
2019-04-28T17:10:15.768Z,1.10
2019-04-28T17:12:45.527Z,0.90
2019-04-28T17:15:14.932Z,1.03
2019-04-28T17:17:44.232Z,0.90
2019-04-28T17:20:14.241Z,1.50
2019-04-28T17:22:43.592Z,1.10
2019-04-28T17:25:13.178Z,1.10
2019-04-28T17:27:42.563Z,1.07
2019-04-28T17:30:12.003Z,1.20
2019-04-28T17:32:41.327Z,1.70
2019-04-28T17:35:10.615Z,1.30
2019-04-28T17:37:39.970Z,1.57
2019-04-28T17:40:09.684Z,1.50
2019-04-28T17:42:38.951Z,1.90
2019-04-28T17:45:08.636Z,1.63
2019-04-28T17:47:37.933Z,2.00
2019-04-28T17:50:08.238Z,1.23
2019-04-28T17:52:37.504Z,1.90
2019-04-28T17:55:06.889Z,1.03
2019-04-28T17:57:36.415Z,1.53
2019-04-28T18:00:13.895Z,1.47
2019-04-28T18:02:48.209Z,1.43
2019-04-28T18:05:26.926Z,1.63
2019-04-28T18:08:00.313Z,1.60
2019-04-28T18:10:29.935Z,1.40
2019-04-28T18:13:00.988Z,1.47
2019-04-28T18:15:38.944Z,1.60
2019-04-28T18:18:14.984Z,1.50
2019-04-28T18:20:44.390Z,2.63
2019-04-28T18:23:13.663Z,2.30
2019-04-28T18:25:42.927Z,2.20
2019-04-28T18:28:12.217Z,2.30
2019-04-28T18:30:46.862Z,3.57
2019-04-28T18:33:50.283Z,2.17
2019-04-28T18:36:26.427Z,2.23
2019-04-28T18:39:01.165Z,2.50
2019-04-28T18:41:48.370Z,2.63
2019-04-28T18:44:20.549Z,3.73
2019-04-28T18:46:50.246Z,3.73
2019-04-28T18:49:20.139Z,8.80
2019-04-28T18:51:49.694Z,7.53
2019-04-28T18:54:19.276Z,6.53
2019-04-28T18:56:48.863Z,6.40
2019-04-28T18:59:18.134Z,8.00
2019-04-28T19:01:59.548Z,6.27
2019-04-28T19:04:28.931Z,5.07
2019-04-28T19:07:05.198Z,4.77
2019-04-28T19:09:45.431Z,5.40
2019-04-28T19:12:22.003Z,5.90
2019-04-28T19:15:25.716Z,5.83
2019-04-28T19:18:03.871Z,5.00
2019-04-28T19:20:33.164Z,4.90
2019-04-28T19:23:02.443Z,3.70
2019-04-28T19:25:35.234Z,3.60
2019-04-28T19:28:03.616Z,3.20
2019-04-28T19:30:33.003Z,5.30
2019-04-28T19:33:02.520Z,5.33
2019-04-28T19:35:31.788Z,6.47
2019-04-28T19:38:01.354Z,5.83
2019-04-28T19:40:31.191Z,16.40
2019-04-28T19:43:00.494Z,6.23
2019-04-28T19:45:31.976Z,6.63
2019-04-28T19:48:01.320Z,5.00
2019-04-28T19:50:30.597Z,4.73
2019-04-28T19:52:59.879Z,6.00
2019-04-28T19:55:36.126Z,7.43
2019-04-28T19:58:24.452Z,5.63
2019-04-28T20:00:57.359Z,4.63
2019-04-28T20:03:26.644Z,5.00
2019-04-28T20:05:56.178Z,4.60
2019-04-28T20:08:25.881Z,5.47
2019-04-28T20:10:55.151Z,4.83
2019-04-28T20:13:24.715Z,4.70
2019-04-28T20:15:53.975Z,5.50
2019-04-28T20:18:23.540Z,5.03
2019-04-28T20:20:53.135Z,4.77
2019-04-28T20:23:22.660Z,4.70
2019-04-28T20:25:52.561Z,4.60
2019-04-28T20:28:21.814Z,4.50
2019-04-28T20:30:51.391Z,5.50
2019-04-28T20:33:20.664Z,5.23
2019-04-28T20:35:54.678Z,5.60
2019-04-28T20:38:33.807Z,6.30
2019-04-28T20:41:19.266Z,4.73
2019-04-28T20:43:48.879Z,5.07
2019-04-28T20:46:18.165Z,4.67
2019-04-28T20:48:47.439Z,4.17
2019-04-28T20:51:16.967Z,4.50
2019-04-28T20:53:47.102Z,3.40
2019-04-28T20:56:16.439Z,3.43
2019-04-28T20:58:45.875Z,3.90
2019-04-28T21:01:15.220Z,4.00
2019-04-28T21:03:44.801Z,3.23
2019-04-28T21:06:14.407Z,3.40
2019-04-28T21:08:43.695Z,4.20
2019-04-28T21:11:13.307Z,3.70
2019-04-28T21:13:42.704Z,6.67
2019-04-28T21:16:11.960Z,4.57
2019-04-28T21:18:41.646Z,4.60
2019-04-28T21:21:11.255Z,4.80
2019-04-28T21:23:40.848Z,4.40
2019-04-28T21:26:11.477Z,4.77
2019-04-28T21:28:41.472Z,4.47
2019-04-28T21:31:10.783Z,4.30
2019-04-28T21:33:40.082Z,4.37
2019-04-28T21:36:09.596Z,3.80
2019-04-28T21:38:39.400Z,4.83
2019-04-28T21:41:08.770Z,4.17
2019-04-28T21:43:59.826Z,4.50
2019-04-28T21:46:34.060Z,5.17
2019-04-28T21:49:09.985Z,4.00
2019-04-28T21:51:39.254Z,4.07
2019-04-28T21:54:08.520Z,3.87
2019-04-28T21:56:38.076Z,4.87
2019-04-28T21:59:07.730Z,4.37
2019-04-28T22:01:37.293Z,4.30
2019-04-28T22:04:06.972Z,4.30
2019-04-28T22:06:36.506Z,4.60
2019-04-28T22:09:07.665Z,4.37
2019-04-28T22:11:37.017Z,4.37
2019-04-28T22:14:06.328Z,4.30
2019-04-28T22:16:36.022Z,4.47
2019-04-28T22:19:05.287Z,4.30
2019-04-28T22:21:34.666Z,3.53
2019-04-28T22:24:22.864Z,4.03
2019-04-28T22:26:53.628Z,3.57
2019-04-28T22:29:23.162Z,3.97
2019-04-28T22:31:52.452Z,3.60
2019-04-28T22:34:21.732Z,3.37
2019-04-28T22:36:51.107Z,3.20
2019-04-28T22:39:20.372Z,3.03
2019-04-28T22:41:49.669Z,2.93
2019-04-28T22:44:19.275Z,3.40
2019-04-28T22:46:48.915Z,2.87
2019-04-28T22:49:18.510Z,2.67
2019-04-28T22:51:48.128Z,2.47
2019-04-28T22:54:23.581Z,3.03
2019-04-28T22:57:07.468Z,2.90
2019-04-28T22:59:40.490Z,2.60
2019-04-28T23:02:14.839Z,2.50
2019-04-28T23:05:06.116Z,2.50
2019-04-28T23:07:35.396Z,2.30
2019-04-28T23:10:05.811Z,2.07
2019-04-28T23:12:35.082Z,2.20
2019-04-28T23:15:06.405Z,2.67
2019-04-28T23:17:35.717Z,2.70
2019-04-28T23:20:08.895Z,2.63
2019-04-28T23:22:47.407Z,2.27
2019-04-28T23:25:17.181Z,2.90
2019-04-28T23:27:46.820Z,3.47
2019-04-28T23:30:35.262Z,2.67
2019-04-28T23:33:04.903Z,3.00
2019-04-28T23:35:34.160Z,2.60
2019-04-28T23:38:03.445Z,2.30
2019-04-28T23:40:32.699Z,2.60
2019-04-28T23:43:08.099Z,2.10
2019-04-28T23:45:37.369Z,2.20
2019-04-28T23:48:07.257Z,2.30
2019-04-28T23:50:46.635Z,2.63
2019-04-28T23:53:17.491Z,2.37
2019-04-28T23:55:46.799Z,2.33
2019-04-28T23:58:16.418Z,2.20
